Time;durP1;ratioP1;P1;durP2;ratioP2;P2;SDS_P1;SDS_P2;PMS_P1;PMS_P2;Temp;Humidity;BMP_temperature;BMP_pressure;BME280_temperature;BME280_humidity;BME280_pressure;Samples;Min_cycle;Max_cycle;Signal;HPM_P1;HPM_P2
2023/03/08 00:00:37;;;;;;;4.47;3.50;;;;;;;5.58;63.58;98399.38;5027394;28;97638;-90
2023/03/08 00:03:03;;;;;;;5.20;4.00;;;;;;;5.78;63.52;98441.94;5018180;28;97279;-90
2023/03/08 00:05:28;;;;;;;5.40;4.13;;;;;;;5.74;63.31;98424.75;5017761;28;97330;-89
2023/03/08 00:07:54;;;;;;;5.03;4.30;;;;;;;5.78;63.47;98441.94;5013597;28;101323;-90
2023/03/08 00:10:20;;;;;;;5.83;4.40;;;;;;;5.44;63.44;98399.19;5031937;28;98306;-90
2023/03/08 00:12:46;;;;;;;6.57;4.90;;;;;;;5.57;64.15;98441.13;5012603;28;98611;-90
2023/03/08 00:15:11;;;;;;;6.10;4.10;;;;;;;5.36;64.55;98440.28;5005830;28;96988;-89
2023/03/08 00:17:37;;;;;;;5.93;4.37;;;;;;;5.39;64.68;98448.81;5037121;27;98542;-90
2023/03/08 00:20:08;;;;;;;5.33;4.47;;;;;;;5.07;64.15;98405.09;5013606;28;100166;-90
2023/03/08 00:22:38;;;;;;;5.93;4.73;;;;;;;5.36;64.47;98463.72;5032781;27;97077;-90
2023/03/08 00:25:05;;;;;;;6.23;5.20;;;;;;;5.31;64.93;98456.09;5031653;28;97396;-90
2023/03/08 00:27:30;;;;;;;7.20;5.73;;;;;;;5.31;64.78;98457.84;5013724;28;101428;-90
2023/03/08 00:29:56;;;;;;;8.97;6.20;;;;;;;5.11;64.67;98419.66;5013703;28;100692;-90
2023/03/08 00:32:25;;;;;;;6.73;5.83;;;;;;;5.36;64.67;98469.75;5016933;28;97277;-90
2023/03/08 00:34:51;;;;;;;8.17;7.10;;;;;;;5.39;64.35;98466.19;5016112;28;97574;-89
2023/03/08 00:37:17;;;;;;;8.27;6.93;;;;;;;5.30;64.93;98462.22;5033268;28;98345;-89
2023/03/08 00:39:50;;;;;;;11.17;7.57;;;;;;;5.17;64.63;98451.44;5024507;28;101248;-90
2023/03/08 00:42:15;;;;;;;9.43;7.67;;;;;;;5.32;64.74;98465.56;5016809;28;96690;-89
2023/03/08 00:44:41;;;;;;;8.57;7.50;;;;;;;5.35;64.42;98467.19;5033908;28;96744;-90
2023/03/08 00:47:07;;;;;;;9.00;7.97;;;;;;;5.30;64.53;98472.63;5027853;28;101385;-89
2023/03/08 00:49:32;;;;;;;10.97;7.77;;;;;;;4.97;64.13;98420.22;5018327;28;101223;-90
2023/03/08 00:51:58;;;;;;;10.47;8.80;;;;;;;5.32;64.52;98465.56;5032723;28;97187;-90
2023/03/08 00:54:23;;;;;;;9.57;8.00;;;;;;;5.30;64.32;98450.97;5009948;28;96912;-91
2023/03/08 00:56:49;;;;;;;8.70;7.40;;;;;;;5.31;64.41;98471.69;5026396;28;98265;-88
2023/03/08 00:59:14;;;;;;;9.40;7.43;;;;;;;5.07;64.29;98424.16;5032465;27;100619;-90
2023/03/08 01:01:40;;;;;;;8.03;7.03;;;;;;;5.41;64.01;98488.63;5018052;28;97172;-90
2023/03/08 01:04:06;;;;;;;8.77;7.27;;;;;;;5.20;63.81;98451.31;5032861;27;97390;-89
2023/03/08 01:06:34;;;;;;;10.73;7.80;;;;;;;5.27;64.29;98469.31;5029458;27;101326;-90
2023/03/08 01:09:00;;;;;;;10.03;7.50;;;;;;;5.35;63.84;98496.69;5035062;27;101749;-90
2023/03/08 01:11:26;;;;;;;9.27;7.97;;;;;;;4.99;63.75;98428.81;5036224;28;97166;-88
2023/03/08 01:13:53;;;;;;;8.43;7.47;;;;;;;5.13;63.56;98470.72;5036353;27;97132;-89
2023/03/08 01:16:19;;;;;;;7.47;6.37;;;;;;;5.21;63.87;98499.84;5035854;28;101542;-89
2023/03/08 01:18:45;;;;;;;7.53;6.53;;;;;;;5.03;64.00;98482.38;5035601;28;100998;-90
2023/03/08 01:21:11;;;;;;;7.43;6.20;;;;;;;5.16;64.00;98509.59;4990155;27;97089;-90
2023/03/08 01:23:37;;;;;;;8.57;5.63;;;;;;;5.25;64.27;98510.97;5029396;28;97160;-90
2023/03/08 01:26:05;;;;;;;7.47;5.30;;;;;;;5.17;64.01;98511.28;5028491;27;101472;-90
2023/03/08 01:28:31;;;;;;;7.80;5.30;;;;;;;5.14;64.29;98511.41;5018382;28;100502;-90
2023/03/08 01:31:04;;;;;;;9.03;4.80;;;;;;;5.19;64.01;98506.88;5035738;28;97142;-88
2023/03/08 01:33:29;;;;;;;8.30;5.37;;;;;;;5.02;63.99;98482.47;5040707;27;97098;-89
2023/03/08 01:35:55;;;;;;;7.30;5.10;;;;;;;5.14;64.20;98501.00;5029661;27;98527;-90
2023/03/08 01:38:22;;;;;;;7.40;4.53;;;;;;;5.18;64.17;98505.19;5016647;27;101130;-90
2023/03/08 01:40:47;;;;;;;6.43;4.47;;;;;;;5.20;63.62;98505.94;5035272;28;97165;-90
2023/03/08 01:43:33;;;;;;;5.33;4.60;;;;;;;5.21;63.65;98512.03;5035288;28;97548;-90
2023/03/08 01:46:20;;;;;;;5.90;4.70;;;;;;;5.18;63.96;98501.75;5035474;28;98452;-89
2023/03/08 01:49:05;;;;;;;5.30;4.60;;;;;;;5.09;63.50;98495.16;5029529;28;100550;-90
2023/03/08 01:51:36;;;;;;;7.70;4.20;;;;;;;5.17;63.95;98518.25;5025568;27;96866;-89
2023/03/08 01:54:10;;;;;;;4.67;3.77;;;;;;;5.12;63.93;98526.25;5021557;28;96807;-90
2023/03/08 01:56:36;;;;;;;4.67;3.67;;;;;;;5.07;63.92;98527.34;5015135;28;101603;-89
2023/03/08 01:59:02;;;;;;;3.97;3.30;;;;;;;4.89;63.98;98516.75;5015698;28;102311;-90
2023/03/08 02:01:28;;;;;;;4.83;2.97;;;;;;;4.93;64.02;98525.28;5051857;27;97061;-90
2023/03/08 02:03:56;;;;;;;4.60;3.37;;;;;;;4.86;64.26;98526.41;5033666;27;96917;-90
2023/03/08 02:06:23;;;;;;;3.40;2.80;;;;;;;4.91;64.08;98540.94;5035112;28;100608;-90
2023/03/08 02:08:49;;;;;;;4.23;3.17;;;;;;;4.78;64.29;98520.69;5017895;28;99902;-89
2023/03/08 02:11:16;;;;;;;4.47;2.40;;;;;;;4.91;64.05;98527.09;5035152;27;97026;-90
2023/03/08 02:13:41;;;;;;;4.10;2.43;;;;;;;4.81;64.34;98531.81;5015835;27;100397;-89
2023/03/08 02:16:09;;;;;;;4.00;2.37;;;;;;;4.88;64.41;98551.44;5020926;28;101548;-91
2023/03/08 02:18:34;;;;;;;7.70;2.80;;;;;;;4.87;64.51;98552.38;5034227;27;100323;-90
2023/03/08 02:21:00;;;;;;;4.77;2.53;;;;;;;4.74;64.54;98527.75;5024864;27;96814;-90
2023/03/08 02:23:26;;;;;;;3.53;2.50;;;;;;;4.89;64.34;98549.72;5019311;28;96798;-90
2023/03/08 02:25:53;;;;;;;3.97;2.23;;;;;;;4.91;64.33;98553.09;5031037;27;101559;-91
2023/03/08 02:28:23;;;;;;;4.00;2.30;;;;;;;4.84;64.59;98547.28;5017855;28;101713;-89
2023/03/08 02:30:52;;;;;;;4.23;2.30;;;;;;;4.79;64.68;98553.56;5018603;28;97604;-90
2023/03/08 02:33:18;;;;;;;6.97;2.77;;;;;;;4.79;64.50;98554.41;5030340;27;97419;-90
2023/03/08 02:35:44;;;;;;;3.03;1.90;;;;;;;4.80;64.62;98555.25;5017293;27;101521;-90
2023/03/08 02:38:12;;;;;;;3.07;1.77;;;;;;;4.71;64.13;98543.47;5017325;27;101729;-89
2023/03/08 02:40:38;;;;;;;3.70;2.00;;;;;;;4.71;64.32;98565.13;5035382;27;96851;-90
2023/03/08 02:43:04;;;;;;;3.37;2.00;;;;;;;4.69;63.84;98553.94;5034599;27;97047;-90
2023/03/08 02:45:30;;;;;;;4.57;2.10;;;;;;;4.79;63.92;98580.41;5015354;27;101265;-90
2023/03/08 02:47:56;;;;;;;3.63;2.10;;;;;;;4.52;64.22;98538.97;5012009;28;101950;-89
2023/03/08 02:50:22;;;;;;;3.43;1.90;;;;;;;4.81;64.11;98572.56;5024069;28;97340;-89
2023/03/08 02:52:48;;;;;;;6.43;2.60;;;;;;;4.73;64.32;98581.47;5051628;27;96934;-90
2023/03/08 02:55:13;;;;;;;3.70;2.17;;;;;;;4.69;64.24;98568.69;5000711;28;101194;-90
2023/03/08 02:57:39;;;;;;;2.70;1.90;;;;;;;4.79;63.97;98585.59;5017228;28;101216;-90
2023/03/08 03:00:05;;;;;;;5.47;2.57;;;;;;;4.79;63.82;98592.56;5021380;28;97246;-90
2023/03/08 03:02:32;;;;;;;4.47;2.33;;;;;;;4.76;64.11;98589.16;5034916;27;96900;-90
2023/03/08 03:04:58;;;;;;;3.93;2.43;;;;;;;4.61;63.54;98563.75;5036224;27;100253;-91
2023/03/08 03:07:24;;;;;;;8.03;2.73;;;;;;;4.74;63.84;98588.41;5013907;28;99087;-90
2023/03/08 03:09:50;;;;;;;7.57;3.43;;;;;;;4.75;63.86;98591.84;5017786;28;97315;-90
2023/03/08 03:12:16;;;;;;;7.47;2.40;;;;;;;4.68;63.87;98585.16;5033406;27;97102;-89
2023/03/08 03:14:42;;;;;;;5.53;2.90;;;;;;;4.73;63.63;98585.84;5015159;28;101158;-90
2023/03/08 03:17:08;;;;;;;7.77;2.40;;;;;;;4.64;63.64;98579.25;5033108;27;100495;-90
2023/03/08 03:19:34;;;;;;;6.30;2.43;;;;;;;4.63;63.66;98580.16;5015289;28;97197;-90
2023/03/08 03:21:59;;;;;;;6.67;3.07;;;;;;;4.71;63.30;98600.66;4997320;28;97022;-90
2023/03/08 03:24:25;;;;;;;8.10;3.50;;;;;;;4.69;63.35;98603.31;4994930;28;101332;-90
2023/03/08 03:26:55;;;;;;;9.10;3.47;;;;;;;4.68;63.87;98608.56;5027355;28;100817;-90
2023/03/08 03:29:23;;;;;;;11.23;3.30;;;;;;;4.73;63.96;98606.63;5017494;27;97032;-90
2023/03/08 03:31:54;;;;;;;4.53;2.50;;;;;;;4.73;63.69;98614.44;5003219;28;97241;-89
2023/03/08 03:34:20;;;;;;;5.67;3.00;;;;;;;4.73;63.34;98622.25;5016521;28;97856;-90
2023/03/08 03:36:47;;;;;;;5.30;2.83;;;;;;;4.64;63.60;98615.63;5000804;28;100348;-88
2023/03/08 03:39:13;;;;;;;8.20;2.87;;;;;;;4.43;63.90;98582.66;5016307;27;97386;-90
2023/03/08 03:41:40;;;;;;;9.80;3.77;;;;;;;4.61;63.96;98614.91;5030645;28;97328;-90
2023/03/08 03:44:10;;;;;;;8.07;3.50;;;;;;;4.72;63.90;98638.75;5000018;28;100817;-90
2023/03/08 03:46:37;;;;;;;8.30;3.57;;;;;;;4.60;63.91;98631.41;5013638;27;101560;-90
2023/03/08 03:49:05;;;;;;;8.40;3.80;;;;;;;4.53;64.21;98643.75;5028128;27;97624;-90
2023/03/08 03:51:35;;;;;;;9.23;3.73;;;;;;;4.24;64.09;98575.50;5018143;28;96806;-91
2023/03/08 03:54:09;;;;;;;7.13;3.67;;;;;;;4.62;63.93;98637.38;5015090;28;101580;-89
2023/03/08 03:56:36;;;;;;;9.63;3.50;;;;;;;4.52;64.47;98631.69;5018260;28;100073;-89
2023/03/08 03:59:02;;;;;;;6.90;2.70;;;;;;;4.57;64.61;98653.16;5013014;28;97162;-90
2023/03/08 04:01:29;;;;;;;8.50;2.83;;;;;;;4.52;64.41;98637.72;5030450;27;96979;-90
2023/03/08 04:04:14;;;;;;;5.47;2.90;;;;;;;4.54;64.32;98646.31;5024998;28;96794;-90
2023/03/08 04:06:42;;;;;;;9.80;4.20;;;;;;;4.48;64.47;98638.75;5016636;28;100997;-89
2023/03/08 04:09:16;;;;;;;8.90;3.60;;;;;;;4.43;65.04;98655.41;5033372;28;97469;-90
2023/03/08 04:11:44;;;;;;;8.87;3.70;;;;;;;4.50;64.46;98654.25;5004492;28;97186;-89
2023/03/08 04:14:14;;;;;;;8.33;3.20;;;;;;;4.58;64.66;98672.19;5000829;28;101758;-89
2023/03/08 04:16:41;;;;;;;7.57;3.47;;;;;;;4.56;64.17;98671.38;5004304;28;100418;-91
2023/03/08 04:19:14;;;;;;;4.70;2.70;;;;;;;4.26;64.36;98637.81;5016922;28;97096;-91
2023/03/08 04:21:47;;;;;;;5.33;2.93;;;;;;;4.52;64.48;98666.31;5014830;28;96894;-90
2023/03/08 04:24:14;;;;;;;4.17;2.37;;;;;;;4.45;64.32;98645.78;5016378;28;101457;-89
2023/03/08 04:26:40;;;;;;;5.30;2.33;;;;;;;4.48;64.90;98656.06;5015977;28;101120;-90
2023/03/08 04:29:06;;;;;;;4.77;2.30;;;;;;;4.47;64.67;98667.38;5015669;28;97083;-90
2023/03/08 04:31:34;;;;;;;7.77;2.70;;;;;;;4.52;64.31;98648.13;5016968;28;96955;-89
2023/03/08 04:34:03;;;;;;;6.63;2.77;;;;;;;4.42;64.69;98651.09;5027600;28;101292;-90
2023/03/08 04:36:30;;;;;;;5.30;3.13;;;;;;;4.32;64.81;98655.75;5000764;28;101300;-89
2023/03/08 04:38:58;;;;;;;4.17;2.20;;;;;;;4.36;65.02;98661.69;5000453;28;96821;-90
2023/03/08 04:41:25;;;;;;;6.37;3.20;;;;;;;4.41;64.73;98670.19;5027220;27;97174;-90
2023/03/08 04:43:57;;;;;;;7.33;2.83;;;;;;;4.34;65.00;98666.97;5007530;28;99403;-90
2023/03/08 04:46:32;;;;;;;4.10;2.43;;;;;;;4.38;65.15;98671.13;5004440;28;101060;-89
2023/03/08 04:48:58;;;;;;;6.43;3.30;;;;;;;4.40;64.60;98666.75;5003496;28;97016;-89
2023/03/08 04:51:28;;;;;;;4.63;2.23;;;;;;;4.41;64.60;98668.44;5005244;28;97399;-89
2023/03/08 04:53:56;;;;;;;3.30;2.20;;;;;;;4.33;64.64;98675.63;5035771;27;101462;-89
2023/03/08 04:56:22;;;;;;;6.93;2.50;;;;;;;4.31;64.77;98680.91;5004333;28;101166;-89
2023/03/08 04:58:49;;;;;;;4.73;2.30;;;;;;;4.15;65.16;98661.53;5032485;27;97205;-87
2023/03/08 05:01:19;;;;;;;3.80;2.90;;;;;;;4.27;64.93;98681.03;5015280;28;97330;-90
2023/03/08 05:03:46;;;;;;;5.53;3.20;;;;;;;4.10;65.10;98647.84;5019178;28;100431;-89
2023/03/08 05:06:15;;;;;;;4.47;3.00;;;;;;;4.34;64.95;98679.09;5016813;27;100739;-89
2023/03/08 05:08:41;;;;;;;5.10;3.10;;;;;;;4.29;65.07;98677.50;5002517;28;97251;-88
2023/03/08 05:11:07;;;;;;;7.87;3.60;;;;;;;4.29;65.06;98679.25;5035517;28;96886;-89
2023/03/08 05:13:37;;;;;;;8.37;3.63;;;;;;;4.23;65.31;98675.13;5035233;28;101677;-89
2023/03/08 05:16:05;;;;;;;7.13;4.40;;;;;;;4.24;65.15;98669.00;5036089;27;101687;-89
2023/03/08 05:18:31;;;;;;;4.73;3.87;;;;;;;4.23;65.73;98690.69;5002920;28;97269;-89
2023/03/08 05:20:59;;;;;;;6.60;4.33;;;;;;;4.34;64.99;98698.13;5010753;28;96994;-90
2023/03/08 05:23:26;;;;;;;9.03;4.53;;;;;;;4.28;65.30;98698.34;5030813;28;101504;-89
2023/03/08 05:25:57;;;;;;;7.73;4.70;;;;;;;4.27;65.43;98696.63;5018360;28;101106;-88
2023/03/08 05:28:25;;;;;;;8.50;6.10;;;;;;;4.22;65.67;98693.38;5018142;28;97160;-88
2023/03/08 05:31:31;;;;;;;8.40;5.57;;;;;;;4.08;65.33;98673.06;5036083;28;96750;-89
2023/03/08 05:33:58;;;;;;;10.50;6.27;;;;;;;4.26;65.64;98697.53;4975442;28;99882;-89
2023/03/08 05:36:33;;;;;;;10.63;5.73;;;;;;;4.21;65.38;98692.50;5036698;27;101430;-89
2023/03/08 05:39:00;;;;;;;10.87;5.33;;;;;;;4.32;65.32;98713.75;5019032;28;96930;-89
2023/03/08 05:41:34;;;;;;;10.57;5.47;;;;;;;4.30;65.42;98712.13;5000358;28;97857;-88
2023/03/08 05:44:01;;;;;;;8.93;5.50;;;;;;;4.26;65.28;98710.53;5016726;28;98106;-90
2023/03/08 05:46:29;;;;;;;9.20;5.80;;;;;;;4.28;65.44;98714.78;4999465;28;100542;-88
2023/03/08 05:48:55;;;;;;;7.57;5.23;;;;;;;4.29;65.10;98716.47;5032795;28;97299;-89
2023/03/08 05:51:21;;;;;;;6.73;4.67;;;;;;;4.30;65.26;98714.72;5031799;28;97566;-89
2023/03/08 05:53:47;;;;;;;7.60;5.33;;;;;;;4.25;65.30;98711.44;5017133;27;101507;-90
2023/03/08 05:56:17;;;;;;;8.63;5.27;;;;;;;4.32;65.40;98716.34;5012056;28;101316;-81
2023/03/08 05:58:51;;;;;;;8.67;4.90;;;;;;;4.32;65.46;98715.50;5012536;28;97594;-80
2023/03/08 06:01:20;;;;;;;10.40;5.97;;;;;;;4.31;65.19;98717.28;5021132;27;97554;-81
2023/03/08 06:03:48;;;;;;;7.93;5.17;;;;;;;4.31;65.31;98719.03;5022143;28;100935;-82
2023/03/08 06:06:16;;;;;;;11.53;6.07;;;;;;;4.34;65.67;98721.53;5024426;28;99638;-82
2023/03/08 06:08:41;;;;;;;8.90;5.20;;;;;;;4.43;65.12;98734.19;5009121;28;97236;-80
2023/03/08 06:11:07;;;;;;;6.53;4.77;;;;;;;4.33;65.21;98732.78;5027484;27;97147;-82
2023/03/08 06:13:34;;;;;;;7.50;4.83;;;;;;;4.40;65.19;98733.44;5010981;27;101224;-79
2023/03/08 06:16:00;;;;;;;8.37;4.77;;;;;;;4.22;65.31;98712.38;5014053;28;101131;-78
2023/03/08 06:18:28;;;;;;;9.67;4.30;;;;;;;4.42;65.31;98732.50;5003119;27;97501;-79
2023/03/08 06:21:02;;;;;;;7.07;4.07;;;;;;;4.55;64.65;98732.91;5011504;28;97551;-79
2023/03/08 06:23:32;;;;;;;8.40;4.83;;;;;;;4.58;64.55;98737.16;5011661;28;101915;-81
2023/03/08 06:25:58;;;;;;;7.03;4.23;;;;;;;4.57;64.95;98751.03;5012764;28;101688;-80
2023/03/08 06:28:25;;;;;;;9.40;4.37;;;;;;;4.46;65.34;98734.09;5012338;28;97179;-81
2023/03/08 06:30:51;;;;;;;9.17;5.33;;;;;;;4.62;64.93;98738.75;5013195;28;97358;-80
2023/03/08 06:33:23;;;;;;;10.67;4.93;;;;;;;4.56;64.79;98742.41;5028629;28;100932;-78
2023/03/08 06:35:55;;;;;;;;;;;;;;;4.65;64.66;98752.47;5017133;27;98528;-80
2023/03/08 06:38:21;;;;;;;9.35;5.57;;;;;;;4.62;64.37;98742.19;5022805;28;97032;-78
2023/03/08 06:40:46;;;;;;;8.37;5.00;;;;;;;4.73;64.27;98745.25;5010310;28;97824;-83
2023/03/08 06:43:12;;;;;;;8.40;4.83;;;;;;;4.73;64.84;98760.00;5012617;28;101508;-83
2023/03/08 06:45:39;;;;;;;8.53;4.70;;;;;;;4.76;64.60;98750.34;5013719;28;101445;-84
2023/03/08 06:48:06;;;;;;;8.93;5.77;;;;;;;4.63;64.54;98737.84;5004221;28;97653;-83
2023/03/08 06:50:33;;;;;;;8.20;5.10;;;;;;;4.72;65.07;98774.78;5021028;28;97541;-84
2023/03/08 06:52:59;;;;;;;8.50;5.23;;;;;;;4.76;64.78;98763.34;5026751;27;99504;-83
2023/03/08 06:55:41;;;;;;;8.27;4.33;;;;;;;4.68;65.41;98762.78;5000384;28;100971;-83
2023/03/08 06:58:07;;;;;;;8.63;4.30;;;;;;;4.76;65.46;98773.75;4995298;27;97199;-83
2023/03/08 07:00:33;;;;;;;5.30;3.53;;;;;;;4.83;65.17;98773.53;5004853;28;97923;-84
2023/03/08 07:02:59;;;;;;;6.87;3.97;;;;;;;4.77;64.83;98772.03;5013195;28;97912;-83
2023/03/08 07:05:24;;;;;;;7.83;4.20;;;;;;;4.87;64.51;98762.97;5023601;27;98054;-82
2023/03/08 07:07:50;;;;;;;5.97;3.70;;;;;;;5.02;64.64;98752.94;5030196;28;97209;-82
2023/03/08 07:10:18;;;;;;;6.37;4.20;;;;;;;5.08;64.11;98766.56;5012385;28;97008;-83
2023/03/08 07:12:47;;;;;;;6.40;4.60;;;;;;;4.99;64.78;98780.72;5013254;28;101259;-83
2023/03/08 07:15:14;;;;;;;9.93;5.13;;;;;;;4.98;64.70;98757.41;5012542;28;101176;-83
2023/03/08 07:17:41;;;;;;;7.50;4.43;;;;;;;5.13;64.26;98769.00;5013339;28;97013;-83
2023/03/08 07:20:07;;;;;;;7.77;4.40;;;;;;;5.18;64.31;98780.94;5012629;28;97289;-83
2023/03/08 07:22:33;;;;;;;7.13;4.37;;;;;;;5.27;63.74;98779.75;5039871;27;101283;-83
2023/03/08 07:24:58;;;;;;;7.50;4.17;;;;;;;5.22;63.73;98773.84;5029196;27;97294;-79
2023/03/08 07:27:24;;;;;;;6.93;4.70;;;;;;;5.20;63.21;98771.31;5029235;27;98038;-78
2023/03/08 07:29:50;;;;;;;7.13;4.80;;;;;;;5.18;63.01;98762.72;5046957;27;96891;-84
2023/03/08 07:32:15;;;;;;;6.10;4.10;;;;;;;5.33;62.86;98783.88;5012631;28;100853;-85
2023/03/08 07:34:41;;;;;;;5.53;3.90;;;;;;;5.32;63.12;98798.63;5032773;27;97740;-85
2023/03/08 07:37:14;;;;;;;6.17;3.97;;;;;;;5.37;62.76;98793.25;5030826;28;96744;-85
2023/03/08 07:39:40;;;;;;;6.60;4.50;;;;;;;5.41;63.26;98793.09;5022030;27;97618;-84
2023/03/08 07:42:06;;;;;;;9.40;4.63;;;;;;;5.42;62.96;98806.97;5012859;28;101254;-85
2023/03/08 07:44:31;;;;;;;8.03;4.40;;;;;;;5.40;63.22;98798.34;5029895;28;101952;-84
2023/03/08 07:46:57;;;;;;;8.13;4.33;;;;;;;5.30;63.00;98791.81;5009356;28;97153;-83
2023/03/08 07:49:23;;;;;;;6.30;3.97;;;;;;;5.44;62.50;98806.00;5029979;28;97272;-83
2023/03/08 07:51:50;;;;;;;10.60;4.50;;;;;;;5.27;62.34;98777.16;5030392;28;101801;-85
2023/03/08 07:54:15;;;;;;;7.17;4.17;;;;;;;5.16;61.95;98785.34;5007389;28;100878;-84
2023/03/08 07:56:41;;;;;;;8.30;4.80;;;;;;;4.97;62.55;98763.50;5012011;28;97038;-84
2023/03/08 07:59:07;;;;;;;7.37;4.30;;;;;;;5.22;63.08;98792.91;5012329;28;97262;-84
2023/03/08 08:01:32;;;;;;;5.53;3.30;;;;;;;5.24;62.37;98782.47;5029093;28;101386;-84
2023/03/08 08:03:59;;;;;;;5.93;3.97;;;;;;;5.48;61.79;98801.53;4994174;28;100988;-84
2023/03/08 08:06:25;;;;;;;7.13;3.93;;;;;;;5.54;62.57;98803.03;5010144;28;97296;-83
2023/03/08 08:08:51;;;;;;;4.67;3.47;;;;;;;5.58;61.88;98799.41;5012409;28;96918;-83
2023/03/08 08:11:18;;;;;;;5.50;4.30;;;;;;;5.48;62.31;98782.47;5031977;27;97975;-85
2023/03/08 08:13:45;;;;;;;12.70;5.13;;;;;;;5.57;62.36;98797.72;5012144;28;100728;-86
2023/03/08 08:16:12;;;;;;;26.60;12.27;;;;;;;5.44;62.32;98786.94;5018480;28;97218;-91
2023/03/08 08:18:37;;;;;;;13.07;7.50;;;;;;;5.31;62.71;98790.88;5018137;28;97177;-88
2023/03/08 08:21:08;;;;;;;8.57;5.50;;;;;;;5.42;62.86;98804.34;5034687;27;100903;-87
2023/03/08 08:23:34;;;;;;;9.10;5.17;;;;;;;5.28;61.62;98776.22;5035265;27;99039;-90
2023/03/08 08:26:03;;;;;;;8.80;4.60;;;;;;;5.37;61.58;98794.09;5026623;28;96797;-86
2023/03/08 08:28:29;;;;;;;9.00;4.87;;;;;;;5.30;62.07;98763.19;4997981;28;97131;-87
2023/03/08 08:31:00;;;;;;;6.97;4.97;;;;;;;5.54;61.76;98816.91;5029277;28;100404;-92
2023/03/08 08:33:27;;;;;;;7.07;5.47;;;;;;;5.55;62.56;98815.16;5032948;28;98283;-90
2023/03/08 08:35:53;;;;;;;10.20;5.10;;;;;;;5.55;62.35;98812.53;5017292;28;96993;-83
2023/03/08 08:38:18;;;;;;;6.97;5.03;;;;;;;5.31;62.43;98794.34;5035748;27;97398;-85
2023/03/08 08:40:44;;;;;;;9.33;4.70;;;;;;;5.30;61.22;98797.84;5042781;27;97979;-85
2023/03/08 08:43:09;;;;;;;9.33;4.40;;;;;;;5.30;61.48;98791.81;5032363;27;101299;-83
2023/03/08 08:45:35;;;;;;;12.30;6.47;;;;;;;5.48;60.81;98796.31;5015874;28;96922;-83
2023/03/08 08:48:00;;;;;;;11.53;5.70;;;;;;;5.53;61.50;98796.16;5011516;28;97383;-83
2023/03/08 08:50:26;;;;;;;14.73;7.77;;;;;;;5.22;60.16;98766.06;5013673;28;101151;-84
2023/03/08 08:52:51;;;;;;;13.33;7.10;;;;;;;5.23;60.74;98754.72;5016661;28;97626;-84
2023/03/08 08:55:17;;;;;;;8.90;5.37;;;;;;;5.29;61.42;98782.28;5031969;28;97194;-84
2023/03/08 08:57:42;;;;;;;8.87;5.60;;;;;;;5.24;61.57;98779.88;5015748;28;96906;-84
2023/03/08 09:00:09;;;;;;;12.07;6.10;;;;;;;5.21;61.92;98787.78;5031613;28;98002;-83
2023/03/08 09:02:35;;;;;;;24.73;11.33;;;;;;;5.45;61.00;98799.03;5032240;28;100119;-84
2023/03/08 09:05:00;;;;;;;16.77;7.70;;;;;;;5.57;60.78;98802.94;5026166;28;98008;-83
2023/03/08 09:07:26;;;;;;;9.40;5.77;;;;;;;5.72;60.49;98793.69;5021916;28;97454;-86
2023/03/08 09:09:55;;;;;;;8.23;4.73;;;;;;;5.79;59.82;98780.38;5015420;28;100373;-86
2023/03/08 09:12:20;;;;;;;10.10;4.13;;;;;;;5.81;60.99;98790.72;5033554;28;97984;-86
2023/03/08 09:14:46;;;;;;;8.90;4.30;;;;;;;5.78;60.23;98767.41;5050299;27;96743;-85
2023/03/08 09:17:12;;;;;;;6.43;4.30;;;;;;;5.97;59.66;98788.41;5033044;27;97416;-89
2023/03/08 09:19:37;;;;;;;10.33;4.83;;;;;;;5.97;58.65;98768.41;5015956;27;97945;-85
2023/03/08 09:22:03;;;;;;;6.80;4.97;;;;;;;6.02;59.40;98758.66;5020179;27;100915;-87
2023/03/08 09:24:29;;;;;;;11.27;4.97;;;;;;;6.62;58.53;98769.22;5014950;28;96735;-88
2023/03/08 09:26:55;;;;;;;9.53;4.70;;;;;;;6.88;58.31;98739.41;5032982;28;97326;-88
2023/03/08 09:29:21;;;;;;;5.97;4.55;;;;;;;7.31;57.04;98760.97;5032055;27;97337;-88
2023/03/08 09:31:46;;;;;;;10.23;5.30;;;;;;;7.59;57.32;98763.16;5015408;28;101366;-86
2023/03/08 09:34:14;;;;;;;5.65;4.68;;;;;;;8.77;55.43;98775.72;5032755;27;97092;-89
2023/03/08 09:36:40;;;;;;;7.65;4.60;;;;;;;8.94;54.95;98753.94;5016083;28;97467;-88
2023/03/08 09:39:08;;;;;;;8.52;4.95;;;;;;;8.43;55.22;98747.81;5011063;28;101199;-90
2023/03/08 09:41:42;;;;;;;7.57;4.00;;;;;;;8.44;54.01;98772.22;5027972;28;97948;-82
2023/03/08 09:44:27;;;;;;;5.75;3.70;;;;;;;8.59;51.83;98761.81;5047591;27;97535;-85
2023/03/08 09:47:06;;;;;;;7.85;3.53;;;;;;;8.95;52.47;98757.38;5005764;28;97134;-87
2023/03/08 09:49:33;;;;;;;4.53;3.63;;;;;;;8.50;52.70;98749.19;4999619;28;101605;-82
2023/03/08 09:52:37;;;;;;;5.57;3.55;;;;;;;8.26;53.27;98750.38;5023180;27;101426;-82
2023/03/08 09:55:04;;;;;;;7.53;3.88;;;;;;;8.10;53.08;98747.69;5014088;28;96943;-82
2023/03/08 09:57:35;;;;;;;5.35;3.85;;;;;;;8.01;53.04;98743.75;5028893;27;97196;-84
2023/03/08 10:00:10;;;;;;;7.72;3.90;;;;;;;7.69;54.03;98719.19;5027720;28;97965;-83
2023/03/08 10:02:54;;;;;;;7.15;3.85;;;;;;;7.62;53.67;98736.03;5007498;28;97957;-85
2023/03/08 10:05:31;;;;;;;7.90;4.25;;;;;;;7.52;54.05;98724.34;5025784;28;97029;-82
2023/03/08 10:08:15;;;;;;;6.25;3.85;;;;;;;7.93;53.43;98723.22;5001061;28;100039;-82
2023/03/08 10:10:59;;;;;;;7.15;3.63;;;;;;;7.97;54.22;98717.84;5044463;27;101415;-82
2023/03/08 10:13:46;;;;;;;5.65;4.07;;;;;;;7.69;54.56;98721.78;5011162;28;101423;-82
2023/03/08 10:16:31;;;;;;;6.40;3.72;;;;;;;7.59;54.82;98720.50;5004319;28;97090;-82
2023/03/08 10:19:02;;;;;;;9.70;5.85;;;;;;;7.56;54.69;98725.88;5028787;27;96910;-82
2023/03/08 10:21:30;;;;;;;7.55;4.60;;;;;;;7.47;54.75;98727.16;5017971;28;101297;-82
2023/03/08 10:24:01;;;;;;;10.52;6.32;;;;;;;7.16;55.22;98727.75;4990349;28;101429;-82
2023/03/08 10:26:27;;;;;;;7.72;5.10;;;;;;;6.91;55.31;98705.34;5010891;28;97358;-82
2023/03/08 10:28:53;;;;;;;7.78;5.53;;;;;;;6.70;55.49;98704.53;5010841;28;97418;-82
2023/03/08 10:31:25;;;;;;;6.93;4.90;;;;;;;6.75;56.23;98718.25;5011177;28;100989;-81
2023/03/08 10:33:57;;;;;;;8.82;6.00;;;;;;;6.56;56.06;98719.94;5028587;27;100822;-82
2023/03/08 10:36:24;;;;;;;8.10;5.88;;;;;;;6.64;56.46;98717.84;5020628;28;97333;-82
2023/03/08 10:39:12;;;;;;;9.50;5.78;;;;;;;6.52;56.54;98700.97;4995144;28;97189;-83
2023/03/08 10:41:53;;;;;;;10.60;6.72;;;;;;;6.39;56.43;98706.78;5021739;27;101496;-82
2023/03/08 10:44:29;;;;;;;8.03;6.20;;;;;;;6.21;57.32;98708.41;5009511;28;101047;-82
2023/03/08 10:46:55;;;;;;;11.97;5.60;;;;;;;6.15;57.77;98690.44;5010528;28;97246;-82
2023/03/08 10:49:23;;;;;;;8.48;6.10;;;;;;;6.20;57.99;98685.88;5010735;28;96997;-83
2023/03/08 10:52:20;;;;;;;9.33;6.57;;;;;;;6.16;58.83;98700.75;5011523;28;101512;-82
2023/03/08 10:54:50;;;;;;;7.50;5.83;;;;;;;6.10;58.98;98698.41;5025489;27;101371;-83
2023/03/08 10:57:18;;;;;;;7.88;5.97;;;;;;;6.07;59.07;98701.16;5005848;28;97382;-82
2023/03/08 10:59:48;;;;;;;11.77;7.53;;;;;;;6.25;58.55;98691.72;5006354;27;98295;-82
2023/03/08 11:02:13;;;;;;;10.33;7.50;;;;;;;6.19;59.15;98697.19;5041926;27;102179;-83
2023/03/08 11:04:53;;;;;;;11.60;7.03;;;;;;;6.04;59.30;98683.03;5026825;28;101700;-83
2023/03/08 11:07:23;;;;;;;7.97;5.37;;;;;;;5.60;59.38;98657.03;5010323;28;97301;-82
2023/03/08 11:09:49;;;;;;;9.47;7.07;;;;;;;5.88;59.07;98675.00;5021519;27;97513;-83
2023/03/08 11:12:23;;;;;;;12.17;7.30;;;;;;;5.82;59.45;98677.84;5011454;28;101883;-83
2023/03/08 11:14:49;;;;;;;9.60;6.07;;;;;;;5.79;59.79;98672.75;4994790;28;101628;-83
2023/03/08 11:17:20;;;;;;;11.63;6.33;;;;;;;5.53;59.84;98630.41;5021687;28;97949;-83
2023/03/08 11:20:23;;;;;;;9.20;6.45;;;;;;;5.63;60.22;98649.94;5015499;28;97977;-82
2023/03/08 11:23:09;;;;;;;12.20;6.63;;;;;;;5.58;60.20;98641.47;4990859;27;101393;-83
2023/03/08 11:25:46;;;;;;;9.73;5.87;;;;;;;5.63;59.96;98652.53;5027692;27;101019;-83
2023/03/08 11:28:39;;;;;;;8.80;5.37;;;;;;;5.50;60.84;98637.47;4995022;28;96874;-83
2023/03/08 11:31:33;;;;;;;12.93;7.97;;;;;;;5.66;60.63;98636.81;5023841;28;97146;-83
2023/03/08 11:34:22;;;;;;;15.37;8.60;;;;;;;5.53;60.48;98619.16;5015007;28;101293;-85
2023/03/08 11:37:00;;;;;;;10.27;7.07;;;;;;;5.55;60.79;98635.53;5017713;27;102614;-83
2023/03/08 11:39:38;;;;;;;10.50;6.77;;;;;;;5.58;60.79;98631.06;5026153;27;97326;-83
2023/03/08 11:42:16;;;;;;;23.63;12.60;;;;;;;5.79;60.40;98623.28;5008826;28;97167;-83
2023/03/08 11:44:54;;;;;;;12.23;7.73;;;;;;;5.60;60.77;98625.78;5015427;27;101671;-83